sensor_id;sensor_type;location;lat;lon;timestamp;pressure;altitude;pressure_sealevel;temperature;humidity
21234;BME280;10774;42.178;26.578;2022-12-07T00:00:52;100236.06;;;8.01;100.00
21234;BME280;10774;42.178;26.578;2022-12-07T00:03:18;100227.00;;;7.48;100.00
21234;BME280;10774;42.178;26.578;2022-12-07T00:05:43;100230.03;;;7.78;100.00
21234;BME280;10774;42.178;26.578;2022-12-07T00:08:09;100224.25;;;7.88;100.00
21234;BME280;10774;42.178;26.578;2022-12-07T00:10:34;100246.53;;;8.05;100.00
21234;BME280;10774;42.178;26.578;2022-12-07T00:13:00;100232.94;;;8.10;100.00
21234;BME280;10774;42.178;26.578;2022-12-07T00:15:26;100238.59;;;8.23;100.00
21234;BME280;10774;42.178;26.578;2022-12-07T00:17:51;100225.66;;;8.13;100.00
21234;BME280;10774;42.178;26.578;2022-12-07T00:20:16;100218.59;;;8.30;100.00
21234;BME280;10774;42.178;26.578;2022-12-07T00:22:42;100233.69;;;8.50;100.00
21234;BME280;10774;42.178;26.578;2022-12-07T00:25:07;100230.78;;;8.54;100.00
21234;BME280;10774;42.178;26.578;2022-12-07T00:27:33;100239.44;;;8.59;100.00
21234;BME280;10774;42.178;26.578;2022-12-07T00:29:58;100236.41;;;8.48;100.00
21234;BME280;10774;42.178;26.578;2022-12-07T00:32:24;100244.56;;;8.28;100.00
21234;BME280;10774;42.178;26.578;2022-12-07T00:34:49;100237.47;;;8.27;100.00
21234;BME280;10774;42.178;26.578;2022-12-07T00:37:15;100236.25;;;7.98;100.00
21234;BME280;10774;42.178;26.578;2022-12-07T00:39:40;100225.84;;;7.92;100.00
21234;BME280;10774;42.178;26.578;2022-12-07T00:42:05;100235.00;;;8.22;100.00
21234;BME280;10774;42.178;26.578;2022-12-07T00:44:31;100238.53;;;8.42;100.00
21234;BME280;10774;42.178;26.578;2022-12-07T00:46:56;100227.28;;;8.52;100.00
21234;BME280;10774;42.178;26.578;2022-12-07T00:49:22;100237.69;;;8.58;100.00
21234;BME280;10774;42.178;26.578;2022-12-07T00:51:48;100220.13;;;8.53;100.00
21234;BME280;10774;42.178;26.578;2022-12-07T00:54:13;100218.81;;;8.44;100.00
21234;BME280;10774;42.178;26.578;2022-12-07T00:56:39;100232.97;;;8.46;100.00
21234;BME280;10774;42.178;26.578;2022-12-07T00:59:05;100232.00;;;8.64;100.00
21234;BME280;10774;42.178;26.578;2022-12-07T01:01:33;100226.56;;;8.49;100.00
21234;BME280;10774;42.178;26.578;2022-12-07T01:03:59;100229.66;;;8.58;100.00
21234;BME280;10774;42.178;26.578;2022-12-07T01:06:27;100222.56;;;8.75;100.00
21234;BME280;10774;42.178;26.578;2022-12-07T01:08:53;100228.41;;;8.83;100.00
21234;BME280;10774;42.178;26.578;2022-12-07T01:11:22;100233.91;;;8.97;100.00
21234;BME280;10774;42.178;26.578;2022-12-07T01:13:52;100204.06;;;8.87;100.00
21234;BME280;10774;42.178;26.578;2022-12-07T01:16:19;100224.59;;;9.04;100.00
21234;BME280;10774;42.178;26.578;2022-12-07T01:18:49;100215.59;;;9.05;100.00
21234;BME280;10774;42.178;26.578;2022-12-07T01:21:18;100210.97;;;9.09;100.00
21234;BME280;10774;42.178;26.578;2022-12-07T01:23:46;100220.47;;;9.14;100.00
21234;BME280;10774;42.178;26.578;2022-12-07T01:26:14;100214.59;;;9.08;100.00
21234;BME280;10774;42.178;26.578;2022-12-07T01:28:40;100209.59;;;9.18;100.00
21234;BME280;10774;42.178;26.578;2022-12-07T01:31:14;100211.25;;;8.87;100.00
21234;BME280;10774;42.178;26.578;2022-12-07T01:33:42;100207.75;;;8.85;100.00
21234;BME280;10774;42.178;26.578;2022-12-07T01:38:43;100192.34;;;8.73;100.00
21234;BME280;10774;42.178;26.578;2022-12-07T01:41:08;100189.59;;;8.74;100.00
21234;BME280;10774;42.178;26.578;2022-12-07T01:43:34;100184.94;;;8.78;100.00
21234;BME280;10774;42.178;26.578;2022-12-07T01:46:00;100196.19;;;8.84;100.00
21234;BME280;10774;42.178;26.578;2022-12-07T01:48:34;100191.16;;;8.78;100.00
21234;BME280;10774;42.178;26.578;2022-12-07T01:51:10;100188.41;;;8.80;100.00
21234;BME280;10774;42.178;26.578;2022-12-07T01:53:39;100189.97;;;8.84;100.00
21234;BME280;10774;42.178;26.578;2022-12-07T01:56:08;100184.28;;;8.90;100.00
21234;BME280;10774;42.178;26.578;2022-12-07T01:58:36;100200.59;;;9.03;100.00
21234;BME280;10774;42.178;26.578;2022-12-07T02:01:02;100190.41;;;9.09;100.00
21234;BME280;10774;42.178;26.578;2022-12-07T02:03:36;100190.88;;;9.18;100.00
21234;BME280;10774;42.178;26.578;2022-12-07T02:06:04;100182.13;;;9.14;100.00
21234;BME280;10774;42.178;26.578;2022-12-07T02:08:30;100184.38;;;9.22;100.00
21234;BME280;10774;42.178;26.578;2022-12-07T02:10:55;100175.91;;;9.13;100.00
21234;BME280;10774;42.178;26.578;2022-12-07T02:13:26;100184.56;;;9.19;100.00
21234;BME280;10774;42.178;26.578;2022-12-07T02:31:27;100168.97;;;9.09;100.00
21234;BME280;10774;42.178;26.578;2022-12-07T02:34:20;100186.28;;;9.20;100.00
21234;BME280;10774;42.178;26.578;2022-12-07T02:36:53;100153.59;;;8.97;100.00
21234;BME280;10774;42.178;26.578;2022-12-07T02:39:28;100177.97;;;9.08;100.00
21234;BME280;10774;42.178;26.578;2022-12-07T02:42:00;100151.69;;;8.99;100.00
21234;BME280;10774;42.178;26.578;2022-12-07T02:44:27;100167.25;;;9.08;100.00
21234;BME280;10774;42.178;26.578;2022-12-07T02:47:03;100152.72;;;8.97;100.00
21234;BME280;10774;42.178;26.578;2022-12-07T02:49:31;100148.53;;;8.91;100.00
21234;BME280;10774;42.178;26.578;2022-12-07T02:51:57;100157.75;;;8.85;100.00
21234;BME280;10774;42.178;26.578;2022-12-07T02:54:22;100144.22;;;8.55;100.00
21234;BME280;10774;42.178;26.578;2022-12-07T02:59:59;100162.06;;;8.37;100.00
21234;BME280;10774;42.178;26.578;2022-12-07T03:08:05;100161.56;;;8.29;100.00
21234;BME280;10774;42.178;26.578;2022-12-07T03:10:55;100159.13;;;8.25;100.00
21234;BME280;10774;42.178;26.578;2022-12-07T03:18:41;100130.41;;;8.11;100.00
21234;BME280;10774;42.178;26.578;2022-12-07T03:21:12;100153.16;;;8.20;100.00
21234;BME280;10774;42.178;26.578;2022-12-07T03:23:40;100145.34;;;7.80;100.00
21234;BME280;10774;42.178;26.578;2022-12-07T03:26:10;100124.81;;;7.81;100.00
21234;BME280;10774;42.178;26.578;2022-12-07T03:28:41;100119.69;;;7.76;100.00
21234;BME280;10774;42.178;26.578;2022-12-07T03:33:49;100137.78;;;7.89;100.00
21234;BME280;10774;42.178;26.578;2022-12-07T03:36:35;100146.84;;;8.21;100.00
21234;BME280;10774;42.178;26.578;2022-12-07T03:39:08;100145.75;;;8.25;100.00
21234;BME280;10774;42.178;26.578;2022-12-07T03:41:42;100128.59;;;8.11;100.00
21234;BME280;10774;42.178;26.578;2022-12-07T03:44:08;100134.56;;;8.17;100.00
21234;BME280;10774;42.178;26.578;2022-12-07T03:49:23;100146.63;;;8.08;100.00
21234;BME280;10774;42.178;26.578;2022-12-07T03:56:47;100146.53;;;8.09;100.00
21234;BME280;10774;42.178;26.578;2022-12-07T03:59:14;100146.53;;;7.92;100.00
21234;BME280;10774;42.178;26.578;2022-12-07T04:01:43;100138.19;;;8.16;100.00
21234;BME280;10774;42.178;26.578;2022-12-07T04:04:08;100140.28;;;8.28;100.00
21234;BME280;10774;42.178;26.578;2022-12-07T04:06:34;100131.00;;;8.18;100.00
21234;BME280;10774;42.178;26.578;2022-12-07T04:08:59;100132.25;;;8.28;100.00
21234;BME280;10774;42.178;26.578;2022-12-07T04:11:25;100136.00;;;8.06;100.00
21234;BME280;10774;42.178;26.578;2022-12-07T04:13:50;100134.75;;;8.13;100.00
21234;BME280;10774;42.178;26.578;2022-12-07T04:16:34;100135.59;;;8.31;100.00
21234;BME280;10774;42.178;26.578;2022-12-07T04:18:59;100133.78;;;8.32;100.00
21234;BME280;10774;42.178;26.578;2022-12-07T04:21:25;100135.84;;;8.27;100.00
21234;BME280;10774;42.178;26.578;2022-12-07T04:23:50;100124.81;;;8.33;100.00
21234;BME280;10774;42.178;26.578;2022-12-07T04:26:16;100131.47;;;8.43;100.00
21234;BME280;10774;42.178;26.578;2022-12-07T04:28:41;100125.31;;;8.24;100.00
21234;BME280;10774;42.178;26.578;2022-12-07T04:31:06;100114.78;;;8.03;100.00
21234;BME280;10774;42.178;26.578;2022-12-07T04:33:32;100143.22;;;8.22;100.00
21234;BME280;10774;42.178;26.578;2022-12-07T04:35:57;100140.09;;;8.13;100.00
21234;BME280;10774;42.178;26.578;2022-12-07T04:38:22;100142.38;;;8.21;100.00
21234;BME280;10774;42.178;26.578;2022-12-07T04:40:48;100142.00;;;8.29;100.00
21234;BME280;10774;42.178;26.578;2022-12-07T04:43:13;100129.63;;;8.26;100.00
21234;BME280;10774;42.178;26.578;2022-12-07T04:45:39;100135.53;;;8.16;100.00
21234;BME280;10774;42.178;26.578;2022-12-07T04:48:04;100136.94;;;8.05;100.00
21234;BME280;10774;42.178;26.578;2022-12-07T04:50:30;100125.78;;;7.97;100.00
21234;BME280;10774;42.178;26.578;2022-12-07T04:52:55;100132.06;;;7.96;100.00
21234;BME280;10774;42.178;26.578;2022-12-07T04:55:20;100148.91;;;8.16;100.00
21234;BME280;10774;42.178;26.578;2022-12-07T04:57:46;100145.69;;;8.09;100.00
21234;BME280;10774;42.178;26.578;2022-12-07T05:00:11;100138.66;;;8.06;100.00
21234;BME280;10774;42.178;26.578;2022-12-07T05:02:37;100138.38;;;8.12;100.00
21234;BME280;10774;42.178;26.578;2022-12-07T05:05:02;100144.81;;;8.26;100.00
21234;BME280;10774;42.178;26.578;2022-12-07T05:07:28;100114.28;;;7.95;100.00
21234;BME280;10774;42.178;26.578;2022-12-07T05:09:53;100131.44;;;8.26;100.00
21234;BME280;10774;42.178;26.578;2022-12-07T05:12:18;100135.06;;;8.25;100.00
21234;BME280;10774;42.178;26.578;2022-12-07T05:14:44;100143.81;;;8.28;100.00
21234;BME280;10774;42.178;26.578;2022-12-07T05:17:09;100124.47;;;8.23;100.00
21234;BME280;10774;42.178;26.578;2022-12-07T05:19:36;100117.34;;;8.22;100.00
21234;BME280;10774;42.178;26.578;2022-12-07T05:22:02;100140.66;;;8.37;100.00
21234;BME280;10774;42.178;26.578;2022-12-07T05:24:27;100138.56;;;8.44;100.00
21234;BME280;10774;42.178;26.578;2022-12-07T05:26:52;100120.22;;;8.36;100.00
21234;BME280;10774;42.178;26.578;2022-12-07T05:29:18;100114.13;;;8.33;100.00
21234;BME280;10774;42.178;26.578;2022-12-07T05:31:44;100142.59;;;8.17;100.00
21234;BME280;10774;42.178;26.578;2022-12-07T05:34:10;100145.28;;;8.17;100.00
21234;BME280;10774;42.178;26.578;2022-12-07T05:36:35;100138.06;;;8.19;100.00
21234;BME280;10774;42.178;26.578;2022-12-07T05:39:01;100152.53;;;8.15;100.00
21234;BME280;10774;42.178;26.578;2022-12-07T05:41:27;100142.06;;;7.74;100.00
21234;BME280;10774;42.178;26.578;2022-12-07T05:44:11;100146.00;;;7.48;100.00
21234;BME280;10774;42.178;26.578;2022-12-07T05:46:37;100150.78;;;7.60;100.00
21234;BME280;10774;42.178;26.578;2022-12-07T05:49:02;100142.38;;;7.68;100.00
21234;BME280;10774;42.178;26.578;2022-12-07T05:51:28;100142.69;;;7.62;100.00
21234;BME280;10774;42.178;26.578;2022-12-07T05:53:53;100137.50;;;7.21;100.00
21234;BME280;10774;42.178;26.578;2022-12-07T05:56:19;100128.34;;;7.45;100.00
21234;BME280;10774;42.178;26.578;2022-12-07T05:58:44;100139.81;;;7.47;100.00
21234;BME280;10774;42.178;26.578;2022-12-07T06:01:28;100145.56;;;7.76;100.00
21234;BME280;10774;42.178;26.578;2022-12-07T06:03:53;100146.84;;;7.86;100.00
21234;BME280;10774;42.178;26.578;2022-12-07T06:06:19;100154.31;;;7.97;100.00
21234;BME280;10774;42.178;26.578;2022-12-07T06:08:45;100126.31;;;7.86;100.00
21234;BME280;10774;42.178;26.578;2022-12-07T06:11:10;100147.31;;;7.94;100.00
21234;BME280;10774;42.178;26.578;2022-12-07T06:13:54;100146.03;;;7.84;100.00
21234;BME280;10774;42.178;26.578;2022-12-07T06:16:19;100131.91;;;7.99;100.00
21234;BME280;10774;42.178;26.578;2022-12-07T06:18:45;100156.28;;;8.10;100.00
21234;BME280;10774;42.178;26.578;2022-12-07T06:21:10;100138.28;;;7.97;100.00
21234;BME280;10774;42.178;26.578;2022-12-07T06:23:36;100143.41;;;8.19;100.00
21234;BME280;10774;42.178;26.578;2022-12-07T06:26:01;100142.63;;;8.34;100.00
21234;BME280;10774;42.178;26.578;2022-12-07T06:28:26;100151.56;;;8.33;100.00
21234;BME280;10774;42.178;26.578;2022-12-07T06:30:59;100152.22;;;8.38;100.00
21234;BME280;10774;42.178;26.578;2022-12-07T06:33:25;100147.03;;;8.35;100.00
21234;BME280;10774;42.178;26.578;2022-12-07T06:35:51;100148.63;;;8.56;100.00
21234;BME280;10774;42.178;26.578;2022-12-07T06:38:16;100143.59;;;8.50;100.00
21234;BME280;10774;42.178;26.578;2022-12-07T06:40:42;100151.25;;;8.74;100.00
21234;BME280;10774;42.178;26.578;2022-12-07T06:43:08;100151.06;;;8.94;100.00
21234;BME280;10774;42.178;26.578;2022-12-07T06:45:33;100154.97;;;9.04;100.00
21234;BME280;10774;42.178;26.578;2022-12-07T06:47:59;100171.53;;;9.28;100.00
21234;BME280;10774;42.178;26.578;2022-12-07T06:50:24;100155.00;;;9.36;100.00
21234;BME280;10774;42.178;26.578;2022-12-07T06:52:51;100166.00;;;9.47;100.00
21234;BME280;10774;42.178;26.578;2022-12-07T06:55:16;100167.66;;;9.50;100.00
21234;BME280;10774;42.178;26.578;2022-12-07T06:57:42;100160.91;;;9.58;100.00
21234;BME280;10774;42.178;26.578;2022-12-07T07:00:07;100167.81;;;9.62;100.00
21234;BME280;10774;42.178;26.578;2022-12-07T07:02:33;100165.91;;;9.64;100.00
21234;BME280;10774;42.178;26.578;2022-12-07T07:04:58;100159.69;;;9.64;100.00
21234;BME280;10774;42.178;26.578;2022-12-07T07:07:24;100166.00;;;9.63;100.00
21234;BME280;10774;42.178;26.578;2022-12-07T07:09:49;100151.75;;;9.62;100.00
21234;BME280;10774;42.178;26.578;2022-12-07T07:12:15;100173.31;;;9.91;100.00
21234;BME280;10774;42.178;26.578;2022-12-07T07:14:40;100145.66;;;9.90;100.00
21234;BME280;10774;42.178;26.578;2022-12-07T07:17:07;100154.53;;;10.07;100.00
21234;BME280;10774;42.178;26.578;2022-12-07T07:19:32;100173.13;;;10.26;100.00
21234;BME280;10774;42.178;26.578;2022-12-07T07:21:57;100168.59;;;10.42;100.00
21234;BME280;10774;42.178;26.578;2022-12-07T07:24:23;100162.22;;;10.29;100.00
21234;BME280;10774;42.178;26.578;2022-12-07T07:26:48;100162.19;;;10.44;100.00
21234;BME280;10774;42.178;26.578;2022-12-07T07:29:13;100176.47;;;10.59;100.00
21234;BME280;10774;42.178;26.578;2022-12-07T07:31:39;100162.88;;;10.62;100.00
21234;BME280;10774;42.178;26.578;2022-12-07T07:34:04;100164.81;;;10.74;100.00
21234;BME280;10774;42.178;26.578;2022-12-07T07:36:30;100161.16;;;10.76;100.00
21234;BME280;10774;42.178;26.578;2022-12-07T07:38:55;100158.78;;;10.71;100.00
21234;BME280;10774;42.178;26.578;2022-12-07T07:41:20;100170.78;;;10.94;100.00
21234;BME280;10774;42.178;26.578;2022-12-07T07:43:46;100177.13;;;10.93;100.00
21234;BME280;10774;42.178;26.578;2022-12-07T07:46:11;100158.28;;;10.79;100.00
21234;BME280;10774;42.178;26.578;2022-12-07T07:48:36;100156.81;;;10.59;100.00
21234;BME280;10774;42.178;26.578;2022-12-07T07:51:05;100167.66;;;10.57;100.00
21234;BME280;10774;42.178;26.578;2022-12-07T07:53:31;100169.06;;;10.48;100.00
21234;BME280;10774;42.178;26.578;2022-12-07T07:55:57;100180.13;;;10.58;100.00
21234;BME280;10774;42.178;26.578;2022-12-07T07:58:23;100158.16;;;10.52;100.00
21234;BME280;10774;42.178;26.578;2022-12-07T08:00:48;100157.69;;;10.59;100.00
21234;BME280;10774;42.178;26.578;2022-12-07T08:03:14;100158.84;;;10.69;100.00
21234;BME280;10774;42.178;26.578;2022-12-07T08:05:39;100163.63;;;10.64;100.00
21234;BME280;10774;42.178;26.578;2022-12-07T08:08:05;100166.31;;;10.64;100.00
21234;BME280;10774;42.178;26.578;2022-12-07T08:10:30;100179.19;;;10.73;100.00
21234;BME280;10774;42.178;26.578;2022-12-07T08:12:57;100162.50;;;10.68;100.00
21234;BME280;10774;42.178;26.578;2022-12-07T08:15:41;100155.13;;;10.72;100.00
21234;BME280;10774;42.178;26.578;2022-12-07T08:18:07;100165.97;;;10.85;100.00
21234;BME280;10774;42.178;26.578;2022-12-07T08:20:33;100146.09;;;10.59;100.00
21234;BME280;10774;42.178;26.578;2022-12-07T08:22:59;100160.03;;;10.80;100.00
21234;BME280;10774;42.178;26.578;2022-12-07T08:25:25;100155.22;;;10.85;100.00
21234;BME280;10774;42.178;26.578;2022-12-07T08:27:51;100173.44;;;10.80;100.00
21234;BME280;10774;42.178;26.578;2022-12-07T08:30:17;100164.81;;;10.74;100.00
21234;BME280;10774;42.178;26.578;2022-12-07T08:35:22;100165.97;;;11.42;100.00
21234;BME280;10774;42.178;26.578;2022-12-07T08:37:48;100162.47;;;11.68;100.00
21234;BME280;10774;42.178;26.578;2022-12-07T08:40:14;100158.06;;;11.67;100.00
21234;BME280;10774;42.178;26.578;2022-12-07T08:42:49;100152.56;;;11.69;100.00
21234;BME280;10774;42.178;26.578;2022-12-07T08:45:16;100143.94;;;11.64;100.00
21234;BME280;10774;42.178;26.578;2022-12-07T08:47:53;100155.41;;;11.80;100.00
21234;BME280;10774;42.178;26.578;2022-12-07T08:50:19;100138.72;;;11.75;100.00
21234;BME280;10774;42.178;26.578;2022-12-07T08:52:49;100156.50;;;11.77;100.00
21234;BME280;10774;42.178;26.578;2022-12-07T08:55:16;100152.34;;;11.86;100.00
21234;BME280;10774;42.178;26.578;2022-12-07T08:57:42;100156.72;;;12.01;100.00
21234;BME280;10774;42.178;26.578;2022-12-07T09:00:08;100145.38;;;11.96;100.00
21234;BME280;10774;42.178;26.578;2022-12-07T09:02:34;100144.53;;;11.96;100.00
21234;BME280;10774;42.178;26.578;2022-12-07T09:04:59;100131.50;;;11.75;100.00
21234;BME280;10774;42.178;26.578;2022-12-07T09:07:25;100136.31;;;11.85;100.00
21234;BME280;10774;42.178;26.578;2022-12-07T09:09:51;100139.16;;;11.96;100.00
21234;BME280;10774;42.178;26.578;2022-12-07T09:12:16;100138.34;;;12.08;100.00
21234;BME280;10774;42.178;26.578;2022-12-07T09:22:56;100114.00;;;11.97;100.00
21234;BME280;10774;42.178;26.578;2022-12-07T09:25:22;100116.06;;;12.06;100.00
21234;BME280;10774;42.178;26.578;2022-12-07T09:27:47;100117.72;;;12.21;100.00
21234;BME280;10774;42.178;26.578;2022-12-07T09:30:13;100120.88;;;12.41;100.00
21234;BME280;10774;42.178;26.578;2022-12-07T09:32:38;100109.78;;;12.58;100.00
21234;BME280;10774;42.178;26.578;2022-12-07T09:35:04;100111.31;;;12.62;100.00
21234;BME280;10774;42.178;26.578;2022-12-07T09:37:29;100097.28;;;12.70;100.00
21234;BME280;10774;42.178;26.578;2022-12-07T09:39:56;100098.38;;;12.80;100.00
21234;BME280;10774;42.178;26.578;2022-12-07T09:42:36;100104.19;;;12.74;100.00
21234;BME280;10774;42.178;26.578;2022-12-07T09:45:06;100091.59;;;12.74;100.00
21234;BME280;10774;42.178;26.578;2022-12-07T09:47:33;100104.63;;;12.80;100.00
21234;BME280;10774;42.178;26.578;2022-12-07T09:50:11;100090.41;;;12.78;100.00
21234;BME280;10774;42.178;26.578;2022-12-07T09:52:38;100090.16;;;13.07;100.00
21234;BME280;10774;42.178;26.578;2022-12-07T09:55:15;100098.72;;;13.50;100.00
21234;BME280;10774;42.178;26.578;2022-12-07T09:57:42;100088.78;;;13.51;100.00
21234;BME280;10774;42.178;26.578;2022-12-07T10:00:19;100080.47;;;13.54;100.00
21234;BME280;10774;42.178;26.578;2022-12-07T10:05:24;100077.91;;;13.76;100.00
21234;BME280;10774;42.178;26.578;2022-12-07T10:07:52;100083.72;;;13.70;100.00
21234;BME280;10774;42.178;26.578;2022-12-07T10:10:31;100086.44;;;13.70;100.00
21234;BME280;10774;42.178;26.578;2022-12-07T10:13:03;100076.72;;;13.44;100.00
21234;BME280;10774;42.178;26.578;2022-12-07T10:15:57;100066.19;;;13.28;100.00
21234;BME280;10774;42.178;26.578;2022-12-07T10:18:34;100067.25;;;13.38;100.00
21234;BME280;10774;42.178;26.578;2022-12-07T10:23:39;100055.66;;;13.12;100.00
21234;BME280;10774;42.178;26.578;2022-12-07T10:26:26;100058.66;;;13.20;100.00
21234;BME280;10774;42.178;26.578;2022-12-07T10:28:53;100064.94;;;13.08;100.00
21234;BME280;10774;42.178;26.578;2022-12-07T10:31:21;100058.66;;;13.07;100.00
21234;BME280;10774;42.178;26.578;2022-12-07T10:33:55;100059.88;;;13.03;100.00
21234;BME280;10774;42.178;26.578;2022-12-07T10:39:09;100053.94;;;13.11;100.00
21234;BME280;10774;42.178;26.578;2022-12-07T10:41:55;100055.22;;;13.18;100.00
21234;BME280;10774;42.178;26.578;2022-12-07T10:44:24;100053.47;;;13.17;100.00
21234;BME280;10774;42.178;26.578;2022-12-07T10:55:20;100044.31;;;13.20;100.00
21234;BME280;10774;42.178;26.578;2022-12-07T11:03:43;100040.16;;;13.03;100.00
21234;BME280;10774;42.178;26.578;2022-12-07T11:15:00;100030.69;;;12.85;100.00
21234;BME280;10774;42.178;26.578;2022-12-07T11:22:44;100016.72;;;12.54;100.00
21234;BME280;10774;42.178;26.578;2022-12-07T11:25:24;100010.38;;;12.68;100.00
21234;BME280;10774;42.178;26.578;2022-12-07T11:28:17;100004.88;;;12.82;100.00
21234;BME280;10774;42.178;26.578;2022-12-07T11:31:52;100009.31;;;13.07;100.00
21234;BME280;10774;42.178;26.578;2022-12-07T11:36:37;99991.16;;;13.34;100.00
21234;BME280;10774;42.178;26.578;2022-12-07T11:39:15;99987.06;;;13.29;100.00
21234;BME280;10774;42.178;26.578;2022-12-07T11:41:42;99986.19;;;13.28;100.00
21234;BME280;10774;42.178;26.578;2022-12-07T11:46:54;100004.75;;;13.20;100.00
21234;BME280;10774;42.178;26.578;2022-12-07T11:51:52;99957.97;;;12.85;100.00
21234;BME280;10774;42.178;26.578;2022-12-07T11:54:27;99989.59;;;13.06;100.00
21234;BME280;10774;42.178;26.578;2022-12-07T11:56:56;99965.56;;;13.03;100.00
21234;BME280;10774;42.178;26.578;2022-12-07T11:59:32;99975.25;;;13.06;100.00
21234;BME280;10774;42.178;26.578;2022-12-07T12:02:21;99971.53;;;13.20;100.00
21234;BME280;10774;42.178;26.578;2022-12-07T12:07:21;99980.75;;;13.41;100.00
21234;BME280;10774;42.178;26.578;2022-12-07T12:09:58;99976.38;;;13.27;100.00
21234;BME280;10774;42.178;26.578;2022-12-07T12:15:42;99964.88;;;13.13;100.00
21234;BME280;10774;42.178;26.578;2022-12-07T12:20:56;99951.75;;;13.08;100.00
21234;BME280;10774;42.178;26.578;2022-12-07T12:23:37;99959.34;;;12.90;100.00
21234;BME280;10774;42.178;26.578;2022-12-07T12:26:06;99929.47;;;12.69;100.00
21234;BME280;10774;42.178;26.578;2022-12-07T12:29:00;99937.66;;;12.68;100.00
21234;BME280;10774;42.178;26.578;2022-12-07T12:32:10;99957.13;;;12.09;100.00
21234;BME280;10774;42.178;26.578;2022-12-07T12:37:42;99946.56;;;11.93;100.00
21234;BME280;10774;42.178;26.578;2022-12-07T12:42:56;99947.09;;;11.46;100.00
21234;BME280;10774;42.178;26.578;2022-12-07T12:54:18;99941.94;;;11.83;100.00
21234;BME280;10774;42.178;26.578;2022-12-07T13:02:29;99945.16;;;11.48;100.00
21234;BME280;10774;42.178;26.578;2022-12-07T13:12:59;99935.31;;;11.61;100.00
21234;BME280;10774;42.178;26.578;2022-12-07T13:20:59;99925.25;;;12.16;100.00
21234;BME280;10774;42.178;26.578;2022-12-07T13:23:29;99937.72;;;12.29;100.00
21234;BME280;10774;42.178;26.578;2022-12-07T13:28:42;99917.06;;;12.17;100.00
21234;BME280;10774;42.178;26.578;2022-12-07T13:31:31;99926.09;;;12.16;100.00
21234;BME280;10774;42.178;26.578;2022-12-07T13:33:57;99911.69;;;12.17;100.00
21234;BME280;10774;42.178;26.578;2022-12-07T13:36:34;99919.44;;;12.35;100.00
21234;BME280;10774;42.178;26.578;2022-12-07T13:39:19;99918.75;;;12.44;100.00
21234;BME280;10774;42.178;26.578;2022-12-07T13:41:49;99923.81;;;12.48;100.00
21234;BME280;10774;42.178;26.578;2022-12-07T13:44:17;99935.44;;;12.49;100.00
21234;BME280;10774;42.178;26.578;2022-12-07T13:47:05;99933.94;;;12.45;100.00
21234;BME280;10774;42.178;26.578;2022-12-07T13:49:45;99921.59;;;12.29;100.00
21234;BME280;10774;42.178;26.578;2022-12-07T13:52:22;99922.44;;;12.30;100.00
21234;BME280;10774;42.178;26.578;2022-12-07T13:57:32;99926.19;;;12.27;100.00
21234;BME280;10774;42.178;26.578;2022-12-07T14:00:04;99932.44;;;12.28;100.00
21234;BME280;10774;42.178;26.578;2022-12-07T14:02:33;99915.22;;;12.18;100.00
21234;BME280;10774;42.178;26.578;2022-12-07T14:05:08;99923.84;;;12.23;100.00
21234;BME280;10774;42.178;26.578;2022-12-07T14:07:34;99906.28;;;12.17;100.00
21234;BME280;10774;42.178;26.578;2022-12-07T14:10:03;99920.06;;;12.25;100.00
21234;BME280;10774;42.178;26.578;2022-12-07T14:12:31;99931.91;;;12.23;100.00
21234;BME280;10774;42.178;26.578;2022-12-07T14:14:59;99920.53;;;12.19;100.00
21234;BME280;10774;42.178;26.578;2022-12-07T14:17:27;99914.06;;;12.09;100.00
21234;BME280;10774;42.178;26.578;2022-12-07T14:22:32;99937.84;;;12.15;100.00
21234;BME280;10774;42.178;26.578;2022-12-07T14:27:33;99945.69;;;12.06;100.00
21234;BME280;10774;42.178;26.578;2022-12-07T14:30:03;99936.56;;;12.08;100.00
21234;BME280;10774;42.178;26.578;2022-12-07T14:32:30;99931.28;;;11.94;100.00
21234;BME280;10774;42.178;26.578;2022-12-07T14:35:13;99929.56;;;11.93;100.00
21234;BME280;10774;42.178;26.578;2022-12-07T14:37:41;99953.22;;;12.00;100.00
21234;BME280;10774;42.178;26.578;2022-12-07T14:40:07;99930.00;;;11.87;100.00
21234;BME280;10774;42.178;26.578;2022-12-07T14:42:34;99948.09;;;11.97;100.00
21234;BME280;10774;42.178;26.578;2022-12-07T14:45:00;99941.31;;;11.92;100.00
21234;BME280;10774;42.178;26.578;2022-12-07T14:47:26;99947.00;;;12.00;100.00
21234;BME280;10774;42.178;26.578;2022-12-07T14:49:52;99943.22;;;11.90;100.00
21234;BME280;10774;42.178;26.578;2022-12-07T14:52:23;99952.38;;;12.00;100.00
21234;BME280;10774;42.178;26.578;2022-12-07T14:54:49;99949.78;;;11.98;100.00
21234;BME280;10774;42.178;26.578;2022-12-07T14:57:15;99947.84;;;11.88;100.00
21234;BME280;10774;42.178;26.578;2022-12-07T14:59:40;99953.09;;;11.76;100.00
21234;BME280;10774;42.178;26.578;2022-12-07T15:02:07;99952.31;;;11.74;100.00
21234;BME280;10774;42.178;26.578;2022-12-07T15:04:34;99952.06;;;11.65;100.00
21234;BME280;10774;42.178;26.578;2022-12-07T15:07:02;99946.81;;;11.63;100.00
21234;BME280;10774;42.178;26.578;2022-12-07T15:09:28;99931.72;;;11.08;100.00
21234;BME280;10774;42.178;26.578;2022-12-07T15:11:54;99950.56;;;10.94;100.00
21234;BME280;10774;42.178;26.578;2022-12-07T15:14:19;99924.13;;;10.88;100.00
21234;BME280;10774;42.178;26.578;2022-12-07T15:16:45;99932.50;;;10.96;100.00